Tatiana 1 — 9HA2824 — position and weather

sailwx.info

Track history (hours):
 
Tides and Currents Weather Stations Pressure Air Temp Water Temp Dewpoint Dewpoint Depression Visibility Wind Speed Wind Dir Waves Ship Positions

Tatiana 1

Last reported at 2015-Oct-08 06:33 UTC. Time now 2016-Feb-08 21:20 UTC.
Position N 37°52' E 015°44'.
Warning: this ship's position is months out of date.

Length 47 m; draft 1.8 m.

Type: Ship. MMSI: 256188000.

Date/timePositionNaut miles runAvg speedWind from/ knotsBaromVisibWave heightAir tempDewpointWater temp
2015-Oct-08 06:33N 37°52' E 015°44'1211.6
2015-Oct-08 05:33N 38°01' E 015°35'1111.3
2015-Oct-08 04:33N 38°12' E 015°36'7 7.3
2015-Oct-08 03:32N 38°20' E 015°36'9 8.9
2015-Oct-08 02:33N 38°21' E 015°25'9 9.1
2015-Oct-08 01:33N 38°19' E 015°13'70 9.3
2015-Oct-07 18:04N 38°14' E 013°45'5 9.5
2015-Oct-07 17:33N 38°14' E 013°39'10 9.5
2015-Oct-07 16:33N 38°14' E 013°26'3311.1
2015-Oct-07 13:33N 38°12' E 012°44'1110.8
2015-Oct-07 12:33N 38°06' E 012°33'5 5.4
2015-Oct-07 11:33N 38°01' E 012°31'0 0.0
2015-Oct-07 10:21N 38°01' E 012°31'0 0.0
2015-Oct-07 09:24N 38°01' E 012°31'0 0.0
2015-Oct-07 08:33N 38°01' E 012°31'0 0.0
2015-Oct-07 07:24N 38°01' E 012°31'0 0.0
2015-Oct-07 06:33N 38°01' E 012°31'3 3.2
2015-Oct-07 05:33N 38°02' E 012°27'8 8.4
2015-Oct-07 04:33N 38°06' E 012°18'12610.3
2015-Oct-06 16:20N 38°57' E 009°50'911.4
2015-Oct-06 15:33N 39°01' E 009°39'1111.0
2015-Oct-06 14:32N 39°05' E 009°26'1010.6
2015-Oct-06 13:33N 39°09' E 009°14'6 5.9
2015-Oct-06 12:33N 39°12' E 009°08'0 0.0
2015-Oct-06 11:32N 39°12' E 009°08'5 4.9
2015-Oct-06 10:33N 39°07' E 009°07'10 9.8
2015-Oct-06 09:33N 38°58' E 009°04'230 9.2
2015-Oct-05 08:33N 39°06' E 004°08'10 9.6
2015-Oct-05 07:33N 39°06' E 003°56'10 9.9
2015-Oct-05 06:33N 39°05' E 003°43'10 9.7
2015-Oct-05 05:33N 39°06' E 003°31'10 9.9
2015-Oct-05 04:33N 39°06' E 003°18'1010.4
2015-Oct-05 03:33N 39°06' E 003°04'10 9.8
2015-Oct-05 02:33N 39°06' E 002°52'10 9.6
2015-Oct-05 01:33N 39°05' E 002°40'9 9.4
2015-Oct-05 00:33N 39°04' E 002°27'9 9.3
2015-Oct-04 23:33N 39°03' E 002°16'9 9.4
2015-Oct-04 22:34N 39°01' E 002°04'10 9.9
2015-Oct-04 21:33N 38°59' E 001°51'10 9.7
2015-Oct-04 20:33N 38°56' E 001°39'10 9.9
2015-Oct-04 19:33N 38°54' E 001°27'1 0.2
2015-Oct-04 16:28N 38°55' E 001°27'0 0.0
2015-Oct-04 13:31N 38°55' E 001°27'  
2015-Oct-02 08:33N 38°53' E 001°30'9 9.4
2015-Oct-02 07:33N 39°01' E 001°36'0 0.4
2015-Oct-02 06:29N 39°02' E 001°36'0 0.0
2015-Oct-02 03:20N 39°02' E 001°36'0 0.0
2015-Oct-02 01:05N 39°02' E 001°36'0 0.0
2015-Oct-02 00:17N 39°02' E 001°36'0 0.0
2015-Oct-01 22:11N 39°02' E 001°36'0 0.1
2015-Oct-01 21:11N 39°02' E 001°36'3 0.3
2015-Oct-01 11:33N 39°01' E 001°40'1110.6
2015-Oct-01 10:33N 39°04' E 001°53'1110.9
2015-Oct-01 09:33N 39°12' E 002°04'1110.9
2015-Oct-01 08:33N 39°19' E 002°14'1110.8
2015-Oct-01 07:33N 39°27' E 002°24'3 0.2
2015-Sep-30 11:32N 39°28' E 002°28'5 5.1
2015-Sep-30 10:31N 39°31' E 002°33'0 0.0
2015-Sep-30 09:25N 39°31' E 002°33'0 0.0
2015-Sep-30 08:31N 39°31' E 002°33'0 0.0
2015-Sep-30 07:28N 39°31' E 002°33'0 0.0
2015-Sep-30 06:28N 39°31' E 002°33'0 0.0
2015-Sep-30 05:31N 39°31' E 002°33'0 0.0
2015-Sep-30 04:31N 39°31' E 002°33'0 0.0
2015-Sep-30 03:22N 39°31' E 002°33'0 0.0
2015-Sep-30 02:28N 39°31' E 002°33'0 0.0
2015-Sep-30 01:25N 39°31' E 002°33'0 0.0
2015-Sep-30 00:28N 39°31' E 002°33'0 0.0
2015-Sep-29 23:22N 39°31' E 002°33'0 0.0
2015-Sep-29 22:28N 39°31' E 002°33'0 0.0
2015-Sep-29 21:07N 39°31' E 002°33'0 0.0
2015-Sep-29 20:28N 39°31' E 002°33'0 0.0
2015-Sep-29 19:28N 39°31' E 002°33'0 0.0
2015-Sep-29 18:25N 39°31' E 002°33'0 0.0
2015-Sep-29 17:28N 39°31' E 002°33'0 0.0
2015-Sep-29 16:31N 39°31' E 002°33'0 0.0
2015-Sep-29 15:31N 39°31' E 002°33'0 0.0
2015-Sep-29 14:28N 39°31' E 002°33'0 0.0
2015-Sep-29 13:31N 39°31' E 002°33'0 0.0
2015-Sep-29 12:28N 39°31' E 002°33'0 0.0
2015-Sep-29 11:28N 39°31' E 002°33'0 0.0
2015-Sep-29 10:31N 39°31' E 002°33'0 0.0
2015-Sep-29 09:28N 39°31' E 002°33'0 0.0
2015-Sep-29 08:31N 39°31' E 002°33'0 0.0
2015-Sep-29 07:31N 39°31' E 002°33'0 0.0
2015-Sep-29 06:28N 39°31' E 002°33'0 0.0
2015-Sep-29 05:28N 39°31' E 002°33'0 0.0
2015-Sep-29 04:31N 39°31' E 002°33'3 2.8
2015-Sep-29 03:33N 39°29' E 002°33'9 9.4
2015-Sep-29 02:34N 39°24' E 002°23'10 9.6
2015-Sep-29 01:33N 39°19' E 002°12'9 9.5
2015-Sep-29 00:33N 39°14' E 002°02'9 9.3
2015-Sep-28 23:33N 39°08' E 001°52'1313.0
2015-Sep-28 22:33N 39°00' E 001°39'6 5.8
2015-Sep-28 21:33N 38°57' E 001°33'2 0.3
2015-Sep-28 16:24N 38°56' E 001°31'11 9.1
2015-Sep-28 15:10N 38°46' E 001°25'1 0.3
2015-Sep-28 10:11N 38°45' E 001°26'4 6.6
2015-Sep-28 09:32N 38°49' E 001°25'6 5.7
2015-Sep-28 08:33N 38°55' E 001°27'0 0.0
2015-Sep-28 07:08N 38°55' E 001°27'  
Track history (hours):
 
Tides and Currents Weather Stations Pressure Air Temp Water Temp Dewpoint Dewpoint Depression Visibility Wind Speed Wind Dir Waves Ship Positions

Tatiana 1

Last reported at 2015-Oct-08 06:33 UTC. Time now 2016-Feb-08 21:20 UTC.
Position N 37°52' E 015°44'.
Warning: this ship's position is months out of date.

Length 47 m; draft 1.8 m.

Type: Ship. MMSI: 256188000.

Date/timePositionNaut miles runAvg speedWind from/ knotsBaromVisibWave heightAir tempDewpointWater temp
2015-Oct-08 06:33N 37°52' E 015°44'1211.6
2015-Oct-08 05:33N 38°01' E 015°35'1111.3
2015-Oct-08 04:33N 38°12' E 015°36'7 7.3
2015-Oct-08 03:32N 38°20' E 015°36'9 8.9
2015-Oct-08 02:33N 38°21' E 015°25'9 9.1
2015-Oct-08 01:33N 38°19' E 015°13'70 9.3
2015-Oct-07 18:04N 38°14' E 013°45'5 9.5
2015-Oct-07 17:33N 38°14' E 013°39'10 9.5
2015-Oct-07 16:33N 38°14' E 013°26'3311.1
2015-Oct-07 13:33N 38°12' E 012°44'1110.8
2015-Oct-07 12:33N 38°06' E 012°33'5 5.4
2015-Oct-07 11:33N 38°01' E 012°31'0 0.0
2015-Oct-07 10:21N 38°01' E 012°31'0 0.0
2015-Oct-07 09:24N 38°01' E 012°31'0 0.0
2015-Oct-07 08:33N 38°01' E 012°31'0 0.0
2015-Oct-07 07:24N 38°01' E 012°31'0 0.0
2015-Oct-07 06:33N 38°01' E 012°31'3 3.2
2015-Oct-07 05:33N 38°02' E 012°27'8 8.4
2015-Oct-07 04:33N 38°06' E 012°18'12610.3
2015-Oct-06 16:20N 38°57' E 009°50'911.4
2015-Oct-06 15:33N 39°01' E 009°39'1111.0
2015-Oct-06 14:32N 39°05' E 009°26'1010.6
2015-Oct-06 13:33N 39°09' E 009°14'6 5.9
2015-Oct-06 12:33N 39°12' E 009°08'0 0.0
2015-Oct-06 11:32N 39°12' E 009°08'5 4.9
2015-Oct-06 10:33N 39°07' E 009°07'10 9.8
2015-Oct-06 09:33N 38°58' E 009°04'230 9.2
2015-Oct-05 08:33N 39°06' E 004°08'10 9.6
2015-Oct-05 07:33N 39°06' E 003°56'10 9.9
2015-Oct-05 06:33N 39°05' E 003°43'10 9.7
2015-Oct-05 05:33N 39°06' E 003°31'10 9.9
2015-Oct-05 04:33N 39°06' E 003°18'1010.4
2015-Oct-05 03:33N 39°06' E 003°04'10 9.8
2015-Oct-05 02:33N 39°06' E 002°52'10 9.6
2015-Oct-05 01:33N 39°05' E 002°40'9 9.4
2015-Oct-05 00:33N 39°04' E 002°27'9 9.3
2015-Oct-04 23:33N 39°03' E 002°16'9 9.4
2015-Oct-04 22:34N 39°01' E 002°04'10 9.9
2015-Oct-04 21:33N 38°59' E 001°51'10 9.7
2015-Oct-04 20:33N 38°56' E 001°39'10 9.9
2015-Oct-04 19:33N 38°54' E 001°27'1 0.2
2015-Oct-04 16:28N 38°55' E 001°27'0 0.0
2015-Oct-04 13:31N 38°55' E 001°27'  
2015-Oct-02 08:33N 38°53' E 001°30'9 9.4
2015-Oct-02 07:33N 39°01' E 001°36'0 0.4
2015-Oct-02 06:29N 39°02' E 001°36'0 0.0
2015-Oct-02 03:20N 39°02' E 001°36'0 0.0
2015-Oct-02 01:05N 39°02' E 001°36'0 0.0
2015-Oct-02 00:17N 39°02' E 001°36'0 0.0
2015-Oct-01 22:11N 39°02' E 001°36'0 0.1
2015-Oct-01 21:11N 39°02' E 001°36'3 0.3
2015-Oct-01 11:33N 39°01' E 001°40'1110.6
2015-Oct-01 10:33N 39°04' E 001°53'1110.9
2015-Oct-01 09:33N 39°12' E 002°04'1110.9
2015-Oct-01 08:33N 39°19' E 002°14'1110.8
2015-Oct-01 07:33N 39°27' E 002°24'3 0.2
2015-Sep-30 11:32N 39°28' E 002°28'5 5.1
2015-Sep-30 10:31N 39°31' E 002°33'0 0.0
2015-Sep-30 09:25N 39°31' E 002°33'0 0.0
2015-Sep-30 08:31N 39°31' E 002°33'0 0.0
2015-Sep-30 07:28N 39°31' E 002°33'0 0.0
2015-Sep-30 06:28N 39°31' E 002°33'0 0.0
2015-Sep-30 05:31N 39°31' E 002°33'0 0.0
2015-Sep-30 04:31N 39°31' E 002°33'0 0.0
2015-Sep-30 03:22N 39°31' E 002°33'0 0.0
2015-Sep-30 02:28N 39°31' E 002°33'0 0.0
2015-Sep-30 01:25N 39°31' E 002°33'0 0.0
2015-Sep-30 00:28N 39°31' E 002°33'0 0.0
2015-Sep-29 23:22N 39°31' E 002°33'0 0.0
2015-Sep-29 22:28N 39°31' E 002°33'0 0.0
2015-Sep-29 21:07N 39°31' E 002°33'0 0.0
2015-Sep-29 20:28N 39°31' E 002°33'0 0.0
2015-Sep-29 19:28N 39°31' E 002°33'0 0.0
2015-Sep-29 18:25N 39°31' E 002°33'0 0.0
2015-Sep-29 17:28N 39°31' E 002°33'0 0.0
2015-Sep-29 16:31N 39°31' E 002°33'0 0.0
2015-Sep-29 15:31N 39°31' E 002°33'0 0.0
2015-Sep-29 14:28N 39°31' E 002°33'0 0.0
2015-Sep-29 13:31N 39°31' E 002°33'0 0.0
2015-Sep-29 12:28N 39°31' E 002°33'0 0.0
2015-Sep-29 11:28N 39°31' E 002°33'0 0.0
2015-Sep-29 10:31N 39°31' E 002°33'0 0.0
2015-Sep-29 09:28N 39°31' E 002°33'0 0.0
2015-Sep-29 08:31N 39°31' E 002°33'0 0.0
2015-Sep-29 07:31N 39°31' E 002°33'0 0.0
2015-Sep-29 06:28N 39°31' E 002°33'0 0.0
2015-Sep-29 05:28N 39°31' E 002°33'0 0.0
2015-Sep-29 04:31N 39°31' E 002°33'3 2.8
2015-Sep-29 03:33N 39°29' E 002°33'9 9.4
2015-Sep-29 02:34N 39°24' E 002°23'10 9.6
2015-Sep-29 01:33N 39°19' E 002°12'9 9.5
2015-Sep-29 00:33N 39°14' E 002°02'9 9.3
2015-Sep-28 23:33N 39°08' E 001°52'1313.0
2015-Sep-28 22:33N 39°00' E 001°39'6 5.8
2015-Sep-28 21:33N 38°57' E 001°33'2 0.3
2015-Sep-28 16:24N 38°56' E 001°31'11 9.1
2015-Sep-28 15:10N 38°46' E 001°25'1 0.3
2015-Sep-28 10:11N 38°45' E 001°26'4 6.6
2015-Sep-28 09:32N 38°49' E 001°25'6 5.7
2015-Sep-28 08:33N 38°55' E 001°27'0 0.0
2015-Sep-28 07:08N 38°55' E 001°27'  

Dump ship's entire track history